createdAt,value
2018-05-31T00:00:01.076Z,93.90
2018-05-31T00:02:28.715Z,93.60
2018-05-31T00:04:57.099Z,93.70
2018-05-31T00:07:24.742Z,93.60
2018-05-31T00:09:53.154Z,93.70
2018-05-31T00:12:20.779Z,93.60
2018-05-31T00:14:49.168Z,93.70
2018-05-31T00:17:17.554Z,93.80
2018-05-31T00:19:45.199Z,93.70
2018-05-31T00:22:13.588Z,93.80
2018-05-31T00:24:41.963Z,93.90
2018-05-31T00:27:10.358Z,94.00
2018-05-31T00:29:37.978Z,94.00
2018-05-31T00:32:05.598Z,94.00
2018-05-31T00:34:33.214Z,93.90
2018-05-31T00:37:01.602Z,94.10
2018-05-31T00:39:29.223Z,94.00
2018-05-31T00:41:56.865Z,94.00
2018-05-31T00:44:24.494Z,94.10
2018-05-31T00:46:52.118Z,94.10
2018-05-31T00:49:19.739Z,94.10
2018-05-31T00:51:47.378Z,94.20
2018-05-31T00:54:14.998Z,94.30
2018-05-31T00:56:42.625Z,94.40
2018-05-31T00:59:10.232Z,94.50
2018-05-31T01:01:38.626Z,94.80
2018-05-31T01:04:06.263Z,94.80
2018-05-31T01:06:33.885Z,94.80
2018-05-31T01:09:01.518Z,94.80
2018-05-31T01:11:29.150Z,94.90
2018-05-31T01:13:57.533Z,94.90
2018-05-31T01:16:25.169Z,94.90
2018-05-31T01:18:53.562Z,95.40
2018-05-31T01:21:21.951Z,95.00
2018-05-31T01:23:50.338Z,95.00
2018-05-31T01:26:17.962Z,95.00
2018-05-31T01:28:46.362Z,95.30
2018-05-31T01:31:14.767Z,95.30
2018-05-31T01:33:42.425Z,95.30
2018-05-31T01:36:10.794Z,95.40
2018-05-31T01:38:38.411Z,95.40
2018-05-31T01:41:06.031Z,95.50
2018-05-31T01:43:33.642Z,95.80
2018-05-31T01:46:01.255Z,95.90
2018-05-31T01:48:28.910Z,96.20
2018-05-31T01:50:56.524Z,96.40
2018-05-31T01:53:24.918Z,97.00
2018-05-31T01:55:53.310Z,97.20
2018-05-31T01:58:20.938Z,97.20
2018-05-31T02:00:48.563Z,97.10
2018-05-31T02:03:16.194Z,97.10
2018-05-31T02:05:43.810Z,97.10
2018-05-31T02:08:11.418Z,96.80
2018-05-31T02:10:39.054Z,96.50
2018-05-31T02:13:07.451Z,96.30
2018-05-31T02:15:35.060Z,96.30
2018-05-31T02:18:02.678Z,96.10
2018-05-31T02:20:30.369Z,96.10
2018-05-31T02:22:57.986Z,96.00
2018-05-31T02:25:25.611Z,95.90
2018-05-31T02:27:54.007Z,95.70
2018-05-31T02:30:22.391Z,95.60
2018-05-31T02:32:50.038Z,95.50
2018-05-31T02:35:18.426Z,95.30
2018-05-31T02:37:46.808Z,95.30
2018-05-31T02:40:15.191Z,95.30
2018-05-31T02:42:42.811Z,95.20
2018-05-31T02:45:11.218Z,95.10
2018-05-31T02:47:38.866Z,95.00
2018-05-31T02:50:06.479Z,95.00
2018-05-31T02:52:34.106Z,95.00
2018-05-31T02:55:02.511Z,95.00
2018-05-31T02:57:30.154Z,95.00
2018-05-31T02:59:57.766Z,95.00
2018-05-31T03:02:25.383Z,95.00
2018-05-31T03:04:53.006Z,95.00
2018-05-31T03:07:20.606Z,94.90
2018-05-31T03:09:48.279Z,94.90
2018-05-31T03:12:15.890Z,94.90
2018-05-31T03:14:44.266Z,94.80
2018-05-31T03:17:12.650Z,94.70
2018-05-31T03:19:41.038Z,94.60
2018-05-31T03:22:09.441Z,94.50
2018-05-31T03:24:37.066Z,94.40
2018-05-31T03:27:05.440Z,94.50
2018-05-31T03:29:33.818Z,94.20
2018-05-31T03:32:02.203Z,94.00
2018-05-31T03:34:30.594Z,93.80
2018-05-31T03:36:58.222Z,93.80
2018-05-31T03:39:26.618Z,93.60
2018-05-31T03:41:55.014Z,93.50
2018-05-31T03:44:22.634Z,93.50
2018-05-31T03:46:50.269Z,93.40
2018-05-31T03:49:17.902Z,93.20
2018-05-31T03:51:45.543Z,93.20
2018-05-31T03:54:13.922Z,93.00
2018-05-31T03:56:42.294Z,92.90
2018-05-31T03:59:10.670Z,92.80
2018-05-31T04:01:38.310Z,92.80
2018-05-31T04:04:05.958Z,92.70
2018-05-31T04:06:33.594Z,92.70
2018-05-31T04:09:01.218Z,92.60
2018-05-31T04:11:28.838Z,92.70
2018-05-31T04:13:56.466Z,92.60
2018-05-31T04:16:24.079Z,92.70
2018-05-31T04:18:52.466Z,92.60
2018-05-31T04:21:20.846Z,92.60
2018-05-31T04:23:49.272Z,92.60
2018-05-31T04:26:16.910Z,92.50
2018-05-31T04:28:44.517Z,92.50
2018-05-31T04:31:12.159Z,92.60
2018-05-31T04:33:39.780Z,92.60
2018-05-31T04:36:08.263Z,92.60
2018-05-31T04:38:35.919Z,92.50
2018-05-31T04:41:03.547Z,92.40
2018-05-31T04:43:31.174Z,92.40
2018-05-31T04:45:58.799Z,92.40
2018-05-31T04:48:26.426Z,92.40
2018-05-31T04:50:54.039Z,92.20
2018-05-31T04:53:21.658Z,92.50
2018-05-31T04:55:50.043Z,91.90
2018-05-31T04:58:18.418Z,91.80
2018-05-31T05:00:46.802Z,91.80
2018-05-31T05:03:15.174Z,91.60
2018-05-31T05:05:43.555Z,91.50
2018-05-31T05:08:11.939Z,91.40
2018-05-31T05:10:40.310Z,91.40
2018-05-31T05:13:08.694Z,91.30
2018-05-31T05:15:36.326Z,91.30
2018-05-31T05:18:03.959Z,91.10
2018-05-31T05:20:31.578Z,90.60
2018-05-31T05:22:59.218Z,90.80
2018-05-31T05:25:27.618Z,90.30
2018-05-31T05:27:55.248Z,90.20
2018-05-31T05:30:23.639Z,90.30
2018-05-31T05:32:51.271Z,89.90
2018-05-31T05:35:18.898Z,89.50
2018-05-31T05:37:46.518Z,88.60
2018-05-31T05:40:14.911Z,88.10
2018-05-31T05:42:42.526Z,88.10
2018-05-31T05:45:10.174Z,87.60
2018-05-31T05:47:37.814Z,87.10
2018-05-31T05:50:05.462Z,86.70
2018-05-31T05:52:33.879Z,85.80
2018-05-31T05:55:01.490Z,85.70
2018-05-31T05:57:29.110Z,85.10
2018-05-31T05:59:56.726Z,84.60
2018-05-31T06:02:24.345Z,83.50
2018-05-31T06:04:52.740Z,82.00
2018-05-31T06:07:20.367Z,82.00
2018-05-31T06:09:47.990Z,81.30
2018-05-31T06:12:15.626Z,83.80
2018-05-31T06:14:43.269Z,84.20
2018-05-31T06:17:11.659Z,83.60
2018-05-31T06:19:40.052Z,82.20
2018-05-31T06:22:07.674Z,82.20
2018-05-31T06:24:35.323Z,82.20
2018-05-31T06:27:02.927Z,81.00
2018-05-31T06:29:30.553Z,81.10
2018-05-31T06:31:58.960Z,80.60
2018-05-31T06:34:26.598Z,80.60
2018-05-31T06:36:54.220Z,79.80
2018-05-31T06:39:21.828Z,78.60
2018-05-31T06:41:49.455Z,78.20
2018-05-31T06:44:17.066Z,77.30
2018-05-31T06:46:45.431Z,76.70
2018-05-31T06:49:13.853Z,77.60
2018-05-31T06:51:41.463Z,77.50
2018-05-31T06:54:09.843Z,78.90
2018-05-31T06:56:38.230Z,77.20
2018-05-31T06:59:06.612Z,77.40
2018-05-31T07:01:34.987Z,76.10
2018-05-31T07:04:03.350Z,75.50
2018-05-31T07:06:31.743Z,74.90
2018-05-31T07:09:00.126Z,74.40
2018-05-31T07:11:28.495Z,73.00
2018-05-31T07:13:56.872Z,71.90
2018-05-31T07:16:25.251Z,71.50
2018-05-31T07:18:53.645Z,71.00
2018-05-31T07:21:21.310Z,71.00
2018-05-31T07:23:48.923Z,70.70
2018-05-31T07:26:16.526Z,69.20
2018-05-31T07:28:44.143Z,68.40
2018-05-31T07:31:11.804Z,68.70
2018-05-31T07:33:39.414Z,70.40
2018-05-31T07:36:07.047Z,70.70
2018-05-31T07:38:35.423Z,68.70
2018-05-31T07:41:03.806Z,68.60
2018-05-31T07:43:32.201Z,68.50
2018-05-31T07:45:59.800Z,68.40
2018-05-31T07:48:27.410Z,66.90
2018-05-31T07:50:55.802Z,66.00
2018-05-31T07:53:23.411Z,66.00
2018-05-31T07:55:51.019Z,66.00
2018-05-31T07:58:18.675Z,65.30
2018-05-31T08:00:46.274Z,64.60
2018-05-31T08:03:13.887Z,63.80
2018-05-31T08:05:42.304Z,63.30
2018-05-31T08:08:09.911Z,63.20
2018-05-31T08:10:38.291Z,60.90
2018-05-31T08:13:06.662Z,61.90
2018-05-31T08:15:35.049Z,61.50
2018-05-31T08:18:03.418Z,61.80
2018-05-31T08:20:31.810Z,61.40
2018-05-31T08:23:00.186Z,60.90
2018-05-31T08:25:28.561Z,59.20
2018-05-31T08:27:56.937Z,58.20
2018-05-31T08:30:25.306Z,56.10
2018-05-31T08:32:53.702Z,53.50
2018-05-31T08:35:21.314Z,53.40
2018-05-31T08:37:48.930Z,53.10
2018-05-31T08:40:16.535Z,51.10
2018-05-31T08:42:44.151Z,50.80
2018-05-31T08:45:11.773Z,49.70
2018-05-31T08:47:39.388Z,44.90
2018-05-31T08:50:07.006Z,44.60
2018-05-31T08:52:35.387Z,41.80
2018-05-31T08:55:03.800Z,40.90
2018-05-31T08:57:31.407Z,40.90
2018-05-31T08:59:59.019Z,40.40
2018-05-31T09:02:26.626Z,38.30
2018-05-31T09:04:54.239Z,38.90
2018-05-31T09:07:21.846Z,38.70
2018-05-31T09:09:49.451Z,38.80
2018-05-31T09:12:17.068Z,38.60
2018-05-31T09:14:45.466Z,37.50
2018-05-31T09:17:13.850Z,36.30
2018-05-31T09:19:41.488Z,36.40
2018-05-31T09:22:09.858Z,38.20
2018-05-31T09:24:37.499Z,38.10
2018-05-31T09:27:05.131Z,39.30
2018-05-31T09:29:32.742Z,40.20
2018-05-31T09:32:00.349Z,37.70
2018-05-31T09:34:27.988Z,38.60
2018-05-31T09:36:55.604Z,37.10
2018-05-31T09:39:23.207Z,37.70
2018-05-31T09:41:50.819Z,38.70
2018-05-31T09:44:18.429Z,39.30
2018-05-31T09:46:46.050Z,38.50
2018-05-31T09:49:13.663Z,39.40
2018-05-31T09:51:41.263Z,37.40
2018-05-31T09:54:08.878Z,36.90
2018-05-31T09:56:36.487Z,36.70
2018-05-31T09:59:04.123Z,38.50
2018-05-31T10:01:31.730Z,40.60
2018-05-31T10:04:00.164Z,39.30
2018-05-31T10:06:27.783Z,39.30
2018-05-31T10:08:55.386Z,38.40
2018-05-31T10:11:22.999Z,39.40
2018-05-31T10:13:51.365Z,40.60
2018-05-31T10:16:19.742Z,39.80
2018-05-31T10:18:48.127Z,40.40
2018-05-31T10:21:16.513Z,39.20
2018-05-31T10:23:44.134Z,39.10
2018-05-31T10:26:11.800Z,38.70
2018-05-31T10:28:39.410Z,38.50
2018-05-31T10:31:07.014Z,38.20
2018-05-31T10:33:34.625Z,38.40
2018-05-31T10:36:02.244Z,38.10
2018-05-31T10:38:29.896Z,37.10
2018-05-31T10:40:57.511Z,37.30
2018-05-31T10:43:25.126Z,39.60
2018-05-31T10:45:52.743Z,40.50
2018-05-31T10:48:20.362Z,39.70
2018-05-31T10:50:48.742Z,37.20
2018-05-31T10:53:17.110Z,36.80
2018-05-31T10:55:45.514Z,35.90
2018-05-31T10:58:13.903Z,34.80
2018-05-31T11:00:41.536Z,35.80
2018-05-31T11:03:09.932Z,34.90
2018-05-31T11:05:37.542Z,34.80
2018-05-31T11:08:05.190Z,36.10
2018-05-31T11:10:32.803Z,35.60
2018-05-31T11:13:00.406Z,36.70
2018-05-31T11:15:28.011Z,36.70
2018-05-31T11:17:56.395Z,36.90
2018-05-31T11:20:24.766Z,38.30
2018-05-31T11:22:53.126Z,35.80
2018-05-31T11:25:20.744Z,35.70
2018-05-31T11:27:48.358Z,37.10
2018-05-31T11:30:16.722Z,37.40
2018-05-31T11:32:44.351Z,37.40
2018-05-31T11:35:11.960Z,37.30
2018-05-31T11:37:40.326Z,36.00
2018-05-31T11:40:08.715Z,36.10
2018-05-31T11:42:37.079Z,35.40
2018-05-31T11:45:05.486Z,34.80
2018-05-31T11:47:33.098Z,34.70
2018-05-31T11:50:00.713Z,34.60
2018-05-31T11:52:28.331Z,35.50
2018-05-31T11:54:55.947Z,36.10
2018-05-31T11:57:23.554Z,36.70
2018-05-31T11:59:51.162Z,37.00
2018-05-31T12:02:18.823Z,37.30
2018-05-31T12:04:46.434Z,37.50
2018-05-31T12:07:14.062Z,37.30
2018-05-31T12:09:41.682Z,37.30
2018-05-31T12:12:09.287Z,37.60
2018-05-31T12:14:36.903Z,36.80
2018-05-31T12:17:04.519Z,36.50
2018-05-31T12:19:32.126Z,37.30
2018-05-31T12:21:59.742Z,37.30
2018-05-31T12:24:27.355Z,36.80
2018-05-31T12:26:54.971Z,36.20
2018-05-31T12:29:22.571Z,38.10
2018-05-31T12:31:50.182Z,38.10
2018-05-31T12:34:17.783Z,38.10
2018-05-31T12:36:45.395Z,37.70
2018-05-31T12:39:13.010Z,38.10
2018-05-31T12:41:40.626Z,37.80
2018-05-31T12:44:08.250Z,36.20
2018-05-31T12:46:35.854Z,37.10
2018-05-31T12:49:04.243Z,35.40
2018-05-31T12:51:32.619Z,35.30
2018-05-31T12:54:01.050Z,35.40
2018-05-31T12:56:28.655Z,35.40
2018-05-31T12:58:57.032Z,34.90
2018-05-31T13:01:25.410Z,34.10
2018-05-31T13:03:53.783Z,33.10
2018-05-31T13:06:22.164Z,33.00
2018-05-31T13:08:49.809Z,32.90
2018-05-31T13:11:17.475Z,33.50
2018-05-31T13:13:45.846Z,31.40
2018-05-31T13:16:13.463Z,31.30
2018-05-31T13:18:41.073Z,32.20
2018-05-31T13:21:09.465Z,32.20
2018-05-31T13:23:37.857Z,31.00
2018-05-31T13:26:05.483Z,31.00
2018-05-31T13:28:33.100Z,29.80
2018-05-31T13:31:00.719Z,29.20
2018-05-31T13:33:29.097Z,28.10
2018-05-31T13:35:57.494Z,27.60
2018-05-31T13:38:25.117Z,27.60
2018-05-31T13:40:52.735Z,28.30
2018-05-31T13:43:20.338Z,28.40
2018-05-31T13:45:47.987Z,28.40
2018-05-31T13:48:15.595Z,29.10
2018-05-31T13:50:43.207Z,27.20
2018-05-31T13:53:10.826Z,26.40
2018-05-31T13:55:38.440Z,26.20
2018-05-31T13:58:06.048Z,26.60
2018-05-31T14:00:33.659Z,26.80
2018-05-31T14:03:01.284Z,27.40
2018-05-31T14:05:28.914Z,26.50
2018-05-31T14:07:56.534Z,26.60
2018-05-31T14:10:24.170Z,26.60
2018-05-31T14:12:51.783Z,26.50
2018-05-31T14:15:19.392Z,26.10
2018-05-31T14:17:47.002Z,26.50
2018-05-31T14:20:14.610Z,26.60
2018-05-31T14:22:42.228Z,25.90
2018-05-31T14:25:09.841Z,26.70
2018-05-31T14:27:37.461Z,27.00
2018-05-31T14:30:05.079Z,26.40
2018-05-31T14:32:32.693Z,26.60
2018-05-31T14:35:00.294Z,26.70
2018-05-31T14:37:27.914Z,26.80
2018-05-31T14:39:56.283Z,27.40
2018-05-31T14:42:23.885Z,27.40
2018-05-31T14:44:51.497Z,26.90
2018-05-31T14:47:19.109Z,26.60
2018-05-31T14:49:47.499Z,25.90
2018-05-31T14:52:15.886Z,26.20
2018-05-31T14:54:44.275Z,26.90
2018-05-31T14:57:11.883Z,26.90
2018-05-31T14:59:39.495Z,26.30
2018-05-31T15:02:07.134Z,27.10
2018-05-31T15:04:35.506Z,28.40
2018-05-31T15:07:03.959Z,28.90
2018-05-31T15:09:31.567Z,28.80
2018-05-31T15:11:59.170Z,29.40
2018-05-31T15:14:26.783Z,28.90
2018-05-31T15:16:55.151Z,27.40
2018-05-31T15:19:23.528Z,27.40
2018-05-31T15:21:51.170Z,27.40
2018-05-31T15:24:18.788Z,27.30
2018-05-31T15:26:46.393Z,26.90
2018-05-31T15:29:14.019Z,27.60
2018-05-31T15:31:41.646Z,28.20
2018-05-31T15:34:09.254Z,28.80
2018-05-31T15:36:36.906Z,28.40
2018-05-31T15:39:04.538Z,28.00
2018-05-31T15:41:32.156Z,28.50
2018-05-31T15:43:59.767Z,28.40
2018-05-31T15:46:27.386Z,29.40
2018-05-31T15:48:55.797Z,29.40
2018-05-31T15:51:23.403Z,29.40
2018-05-31T15:53:51.012Z,28.60
2018-05-31T15:56:18.629Z,28.70
2018-05-31T15:58:46.244Z,28.80
2018-05-31T16:01:13.862Z,29.70
2018-05-31T16:03:43.051Z,28.40
2018-05-31T16:06:11.427Z,27.90
2018-05-31T16:08:39.082Z,27.80
2018-05-31T16:11:07.467Z,28.20
2018-05-31T16:13:35.850Z,28.60
2018-05-31T16:16:03.500Z,28.50
2018-05-31T16:18:31.111Z,29.30
2018-05-31T16:20:58.729Z,29.70
2018-05-31T16:23:27.136Z,29.20
2018-05-31T16:25:54.765Z,29.10
2018-05-31T16:28:23.198Z,29.80
2018-05-31T16:30:50.806Z,29.70
2018-05-31T16:33:19.190Z,31.00
2018-05-31T16:35:47.623Z,33.20
2018-05-31T16:38:15.227Z,33.20
2018-05-31T16:40:43.602Z,33.60
2018-05-31T16:43:11.986Z,33.40
2018-05-31T16:45:40.373Z,33.40
2018-05-31T16:48:08.000Z,33.40
2018-05-31T16:50:35.633Z,33.30
2018-05-31T16:53:03.244Z,33.00
2018-05-31T16:55:31.619Z,34.90
2018-05-31T16:58:00.019Z,35.10
2018-05-31T17:00:27.635Z,35.10
2018-05-31T17:02:55.238Z,36.40
2018-05-31T17:05:22.850Z,37.40
2018-05-31T17:07:50.475Z,39.70
2018-05-31T17:10:18.082Z,39.70
2018-05-31T17:12:45.698Z,40.10
2018-05-31T17:15:13.298Z,40.50
2018-05-31T17:17:40.918Z,41.40
2018-05-31T17:20:08.542Z,42.40
2018-05-31T17:22:36.150Z,41.90
2018-05-31T17:25:03.772Z,41.60
2018-05-31T17:27:31.427Z,41.70
2018-05-31T17:29:59.035Z,41.80
2018-05-31T17:32:26.639Z,41.30
2018-05-31T17:34:55.022Z,43.20
2018-05-31T17:37:22.636Z,43.20
2018-05-31T17:39:50.247Z,44.10
2018-05-31T17:42:17.858Z,44.40
2018-05-31T17:44:45.484Z,44.80
2018-05-31T17:47:13.091Z,45.40
2018-05-31T17:49:40.722Z,46.50
2018-05-31T17:52:08.359Z,47.70
2018-05-31T17:54:35.966Z,48.80
2018-05-31T17:57:03.629Z,49.60
2018-05-31T17:59:31.279Z,49.90
2018-05-31T18:01:58.890Z,50.00
2018-05-31T18:04:26.502Z,50.10
2018-05-31T18:06:54.114Z,50.90
2018-05-31T18:09:21.723Z,52.10
2018-05-31T18:11:49.334Z,52.90
2018-05-31T18:14:16.997Z,53.70
2018-05-31T18:16:44.598Z,54.50
2018-05-31T18:19:12.215Z,54.90
2018-05-31T18:21:39.818Z,55.70
2018-05-31T18:24:07.443Z,56.50
2018-05-31T18:26:35.058Z,55.60
2018-05-31T18:29:03.448Z,55.50
2018-05-31T18:31:31.826Z,55.70
2018-05-31T18:34:00.211Z,55.50
2018-05-31T18:36:27.830Z,55.50
2018-05-31T18:38:55.439Z,55.70
2018-05-31T18:41:23.055Z,56.20
2018-05-31T18:43:50.671Z,56.60
2018-05-31T18:46:18.271Z,56.90
2018-05-31T18:48:45.886Z,57.10
2018-05-31T18:51:19.348Z,57.30
2018-05-31T18:53:47.761Z,58.20
2018-05-31T18:56:15.362Z,58.20
2018-05-31T18:58:42.959Z,59.00
2018-05-31T19:01:11.377Z,60.20
2018-05-31T19:03:38.986Z,60.20
2018-05-31T19:06:07.368Z,61.40
2018-05-31T19:08:35.752Z,62.20
2018-05-31T19:11:04.131Z,63.50
2018-05-31T19:13:38.139Z,63.00
2018-05-31T19:16:06.511Z,63.90
2018-05-31T19:18:40.564Z,64.10
2018-05-31T19:21:08.231Z,64.00
2018-05-31T19:23:35.861Z,64.60
2018-05-31T19:26:03.527Z,64.90
2018-05-31T19:28:31.138Z,65.40
2018-05-31T19:31:04.346Z,65.90
2018-05-31T19:33:32.735Z,67.10
2018-05-31T19:36:06.888Z,67.50
2018-05-31T19:38:34.516Z,67.40
2018-05-31T19:41:02.182Z,67.80
2018-05-31T19:43:35.518Z,68.20
2018-05-31T19:46:03.123Z,68.40
2018-05-31T19:48:31.523Z,69.20
2018-05-31T19:51:00.059Z,69.20
2018-05-31T19:53:34.037Z,69.70
2018-05-31T19:56:01.664Z,70.00
2018-05-31T19:58:34.958Z,70.40
2018-05-31T20:01:08.147Z,70.60
2018-05-31T20:03:37.152Z,71.00
2018-05-31T20:06:04.764Z,70.90
2018-05-31T20:08:32.386Z,71.40
2018-05-31T20:11:00.006Z,71.40
2018-05-31T20:13:28.412Z,72.10
2018-05-31T20:15:56.020Z,72.00
2018-05-31T20:18:24.431Z,72.20
2018-05-31T20:20:52.091Z,72.10
2018-05-31T20:23:20.448Z,72.50
2018-05-31T20:25:48.814Z,72.80
2018-05-31T20:28:16.418Z,72.80
2018-05-31T20:30:44.121Z,73.10
2018-05-31T20:33:11.690Z,73.30
2018-05-31T20:35:39.292Z,73.80
2018-05-31T20:38:06.910Z,74.20
2018-05-31T20:40:34.518Z,74.50
2018-05-31T20:43:02.171Z,75.00
2018-05-31T20:45:29.796Z,75.30
2018-05-31T20:47:57.416Z,75.60
2018-05-31T20:50:25.027Z,76.40
2018-05-31T20:52:53.414Z,78.40
2018-05-31T20:55:21.774Z,79.30
2018-05-31T20:57:49.387Z,79.30
2018-05-31T21:00:16.995Z,79.90
2018-05-31T21:02:44.610Z,80.50
2018-05-31T21:05:12.214Z,81.40
2018-05-31T21:07:40.603Z,82.50
2018-05-31T21:10:08.979Z,83.00
2018-05-31T21:12:37.418Z,83.60
2018-05-31T21:15:05.065Z,83.40
2018-05-31T21:17:32.687Z,83.80
2018-05-31T21:20:00.344Z,84.40
2018-05-31T21:22:28.728Z,85.50
2018-05-31T21:24:57.915Z,86.20
2018-05-31T21:27:25.594Z,86.10
2018-05-31T21:29:53.222Z,86.70
2018-05-31T21:32:21.622Z,88.40
2018-05-31T21:34:49.991Z,88.20
2018-05-31T21:37:18.379Z,88.70
2018-05-31T21:39:46.767Z,89.10
2018-05-31T21:42:14.375Z,89.10
2018-05-31T21:44:42.003Z,89.30
2018-05-31T21:47:09.605Z,89.90
2018-05-31T21:49:37.210Z,90.10
2018-05-31T21:52:04.846Z,90.30
2018-05-31T21:54:33.223Z,90.60
2018-05-31T21:57:01.636Z,90.80
2018-05-31T21:59:29.246Z,90.70
2018-05-31T22:01:56.874Z,90.90
2018-05-31T22:04:24.474Z,91.00
2018-05-31T22:06:52.847Z,91.20
2018-05-31T22:09:20.448Z,91.20
2018-05-31T22:11:48.057Z,91.30
2018-05-31T22:14:15.676Z,91.40
2018-05-31T22:16:43.282Z,91.60
2018-05-31T22:19:10.920Z,91.70
2018-05-31T22:21:38.542Z,92.00
2018-05-31T22:24:06.163Z,91.90
2018-05-31T22:26:34.546Z,92.10
2018-05-31T22:29:02.943Z,92.00
2018-05-31T22:31:30.598Z,92.00
2018-05-31T22:33:58.963Z,91.90
2018-05-31T22:36:27.337Z,92.10
2018-05-31T22:38:55.710Z,92.10
2018-05-31T22:41:23.306Z,92.00
2018-05-31T22:43:50.911Z,92.10
2018-05-31T22:46:18.516Z,92.40
2018-05-31T22:48:46.122Z,92.50
2018-05-31T22:51:13.743Z,92.60
2018-05-31T22:53:41.346Z,92.80
2018-05-31T22:56:08.947Z,92.90
2018-05-31T22:58:37.327Z,92.90
2018-05-31T23:01:05.734Z,92.90
2018-05-31T23:03:33.379Z,92.90
2018-05-31T23:06:00.988Z,93.00
2018-05-31T23:08:44.240Z,93.00
2018-05-31T23:11:12.615Z,93.20
2018-05-31T23:13:40.985Z,93.00
2018-05-31T23:16:08.594Z,92.90
2018-05-31T23:18:36.278Z,93.00
2018-05-31T23:21:03.878Z,92.90
2018-05-31T23:23:32.259Z,92.80
2018-05-31T23:26:00.633Z,92.70
2018-05-31T23:28:29.020Z,92.80
2018-05-31T23:30:57.397Z,92.80
2018-05-31T23:33:25.766Z,92.80
2018-05-31T23:35:54.151Z,92.80
2018-05-31T23:38:22.531Z,92.90
2018-05-31T23:40:50.903Z,93.00
2018-05-31T23:43:19.270Z,93.00
2018-05-31T23:45:47.642Z,93.10
2018-05-31T23:48:15.258Z,93.10
2018-05-31T23:50:42.876Z,93.20
2018-05-31T23:53:11.250Z,93.50
2018-05-31T23:55:39.622Z,93.60
2018-05-31T23:58:07.994Z,93.60
